sensor_id;sensor_type;location;lat;lon;timestamp;temperature;humidity
67868;SHT31;54672;46.096;14.470;2024-01-06T00:02:04;5.66;99.99
67868;SHT31;54672;46.096;14.470;2024-01-06T00:04:29;5.66;99.99
67868;SHT31;54672;46.096;14.470;2024-01-06T00:06:55;5.64;99.99
67868;SHT31;54672;46.096;14.470;2024-01-06T00:09:20;5.64;99.99
67868;SHT31;54672;46.096;14.470;2024-01-06T00:11:45;5.65;99.99
67868;SHT31;54672;46.096;14.470;2024-01-06T00:14:11;5.64;99.99
67868;SHT31;54672;46.096;14.470;2024-01-06T00:16:36;5.68;99.99
67868;SHT31;54672;46.096;14.470;2024-01-06T00:19:02;5.71;99.99
67868;SHT31;54672;46.096;14.470;2024-01-06T00:21:27;5.76;99.99
67868;SHT31;54672;46.096;14.470;2024-01-06T00:23:53;5.81;99.99
67868;SHT31;54672;46.096;14.470;2024-01-06T00:26:20;5.85;99.99
67868;SHT31;54672;46.096;14.470;2024-01-06T00:28:46;5.86;99.99
67868;SHT31;54672;46.096;14.470;2024-01-06T00:31:14;5.89;99.99
67868;SHT31;54672;46.096;14.470;2024-01-06T00:33:41;5.91;99.99
67868;SHT31;54672;46.096;14.470;2024-01-06T00:36:07;5.88;99.99
67868;SHT31;54672;46.096;14.470;2024-01-06T00:38:33;5.92;99.99
67868;SHT31;54672;46.096;14.470;2024-01-06T00:40:58;5.92;99.99
67868;SHT31;54672;46.096;14.470;2024-01-06T00:43:24;5.95;99.99
67868;SHT31;54672;46.096;14.470;2024-01-06T00:45:49;6.01;99.99
67868;SHT31;54672;46.096;14.470;2024-01-06T00:48:14;6.07;99.99
67868;SHT31;54672;46.096;14.470;2024-01-06T00:50:40;6.09;99.99
67868;SHT31;54672;46.096;14.470;2024-01-06T00:53:05;6.07;99.99
67868;SHT31;54672;46.096;14.470;2024-01-06T00:55:31;6.05;99.99
67868;SHT31;54672;46.096;14.470;2024-01-06T00:57:56;6.05;99.99
67868;SHT31;54672;46.096;14.470;2024-01-06T01:00:22;6.06;99.99
67868;SHT31;54672;46.096;14.470;2024-01-06T01:02:48;6.13;99.99
67868;SHT31;54672;46.096;14.470;2024-01-06T01:05:13;6.17;99.99
67868;SHT31;54672;46.096;14.470;2024-01-06T01:07:39;6.27;99.99
67868;SHT31;54672;46.096;14.470;2024-01-06T01:10:04;6.44;99.99
67868;SHT31;54672;46.096;14.470;2024-01-06T01:12:31;6.50;99.99
67868;SHT31;54672;46.096;14.470;2024-01-06T01:14:56;6.58;99.99
67868;SHT31;54672;46.096;14.470;2024-01-06T01:17:22;6.43;99.99
67868;SHT31;54672;46.096;14.470;2024-01-06T01:19:47;6.37;99.99
67868;SHT31;54672;46.096;14.470;2024-01-06T01:22:13;6.36;99.99
67868;SHT31;54672;46.096;14.470;2024-01-06T01:24:38;6.37;99.99
67868;SHT31;54672;46.096;14.470;2024-01-06T01:27:04;6.41;99.99
67868;SHT31;54672;46.096;14.470;2024-01-06T01:29:30;6.38;99.99
67868;SHT31;54672;46.096;14.470;2024-01-06T01:31:55;6.36;99.99
67868;SHT31;54672;46.096;14.470;2024-01-06T01:34:21;6.37;99.99
67868;SHT31;54672;46.096;14.470;2024-01-06T01:36:46;6.33;99.99
67868;SHT31;54672;46.096;14.470;2024-01-06T01:39:11;6.37;99.99
67868;SHT31;54672;46.096;14.470;2024-01-06T01:41:37;6.26;99.99
67868;SHT31;54672;46.096;14.470;2024-01-06T01:44:03;6.26;99.99
67868;SHT31;54672;46.096;14.470;2024-01-06T01:46:29;6.26;99.99
67868;SHT31;54672;46.096;14.470;2024-01-06T01:48:56;6.24;99.99
67868;SHT31;54672;46.096;14.470;2024-01-06T01:51:23;6.24;99.99
67868;SHT31;54672;46.096;14.470;2024-01-06T01:53:49;6.27;99.99
67868;SHT31;54672;46.096;14.470;2024-01-06T01:56:16;6.26;99.99
67868;SHT31;54672;46.096;14.470;2024-01-06T01:58:42;6.22;99.99
67868;SHT31;54672;46.096;14.470;2024-01-06T02:01:07;6.23;99.99
67868;SHT31;54672;46.096;14.470;2024-01-06T02:03:34;6.26;99.99
67868;SHT31;54672;46.096;14.470;2024-01-06T02:06:00;6.29;99.99
67868;SHT31;54672;46.096;14.470;2024-01-06T02:08:25;6.27;99.99
67868;SHT31;54672;46.096;14.470;2024-01-06T02:10:55;6.32;99.99
67868;SHT31;54672;46.096;14.470;2024-01-06T02:13:22;6.29;99.99
67868;SHT31;54672;46.096;14.470;2024-01-06T02:15:48;6.32;99.99
67868;SHT31;54672;46.096;14.470;2024-01-06T02:18:13;6.33;99.99
67868;SHT31;54672;46.096;14.470;2024-01-06T02:20:43;6.29;99.99
67868;SHT31;54672;46.096;14.470;2024-01-06T02:23:09;6.30;99.99
67868;SHT31;54672;46.096;14.470;2024-01-06T02:25:34;6.24;99.99
67868;SHT31;54672;46.096;14.470;2024-01-06T02:28:00;6.24;99.99
67868;SHT31;54672;46.096;14.470;2024-01-06T02:30:26;6.24;99.99
67868;SHT31;54672;46.096;14.470;2024-01-06T02:32:51;6.20;99.99
67868;SHT31;54672;46.096;14.470;2024-01-06T02:35:17;6.20;99.99
67868;SHT31;54672;46.096;14.470;2024-01-06T02:37:43;6.23;99.99
67868;SHT31;54672;46.096;14.470;2024-01-06T02:40:09;6.23;99.99
67868;SHT31;54672;46.096;14.470;2024-01-06T02:42:34;6.26;99.99
67868;SHT31;54672;46.096;14.470;2024-01-06T02:45:00;6.27;99.99
67868;SHT31;54672;46.096;14.470;2024-01-06T02:47:25;6.29;99.99
67868;SHT31;54672;46.096;14.470;2024-01-06T02:49:50;6.29;99.99
67868;SHT31;54672;46.096;14.470;2024-01-06T02:52:16;6.29;99.99
67868;SHT31;54672;46.096;14.470;2024-01-06T02:54:41;6.29;99.99
67868;SHT31;54672;46.096;14.470;2024-01-06T02:57:07;6.24;99.99
67868;SHT31;54672;46.096;14.470;2024-01-06T02:59:32;6.27;99.99
67868;SHT31;54672;46.096;14.470;2024-01-06T03:02:00;6.32;99.99
67868;SHT31;54672;46.096;14.470;2024-01-06T03:04:26;6.33;99.99
67868;SHT31;54672;46.096;14.470;2024-01-06T03:06:51;6.34;99.99
67868;SHT31;54672;46.096;14.470;2024-01-06T03:09:18;6.32;99.99
67868;SHT31;54672;46.096;14.470;2024-01-06T03:11:44;6.36;99.99
67868;SHT31;54672;46.096;14.470;2024-01-06T03:14:10;6.30;99.99
67868;SHT31;54672;46.096;14.470;2024-01-06T03:16:35;6.32;99.99
67868;SHT31;54672;46.096;14.470;2024-01-06T03:19:01;6.36;99.99
67868;SHT31;54672;46.096;14.470;2024-01-06T03:21:26;6.38;99.99
67868;SHT31;54672;46.096;14.470;2024-01-06T03:23:52;6.37;99.99
67868;SHT31;54672;46.096;14.470;2024-01-06T03:26:17;6.33;99.99
67868;SHT31;54672;46.096;14.470;2024-01-06T03:28:43;6.29;99.99
67868;SHT31;54672;46.096;14.470;2024-01-06T03:31:08;6.29;99.99
67868;SHT31;54672;46.096;14.470;2024-01-06T03:33:34;6.36;99.99
67868;SHT31;54672;46.096;14.470;2024-01-06T03:36:06;6.29;99.99
67868;SHT31;54672;46.096;14.470;2024-01-06T03:38:32;6.30;99.99
67868;SHT31;54672;46.096;14.470;2024-01-06T03:40:58;6.34;99.99
67868;SHT31;54672;46.096;14.470;2024-01-06T03:43:23;6.26;99.99
67868;SHT31;54672;46.096;14.470;2024-01-06T03:45:48;6.26;99.99
67868;SHT31;54672;46.096;14.470;2024-01-06T03:48:14;6.24;99.99
67868;SHT31;54672;46.096;14.470;2024-01-06T03:50:39;6.15;99.99
67868;SHT31;54672;46.096;14.470;2024-01-06T03:53:05;6.06;99.99
67868;SHT31;54672;46.096;14.470;2024-01-06T03:55:30;6.02;99.99
67868;SHT31;54672;46.096;14.470;2024-01-06T03:57:55;6.01;99.99
67868;SHT31;54672;46.096;14.470;2024-01-06T04:00:21;6.07;99.99
67868;SHT31;54672;46.096;14.470;2024-01-06T04:02:46;6.10;99.99
67868;SHT31;54672;46.096;14.470;2024-01-06T04:05:12;6.16;99.99
67868;SHT31;54672;46.096;14.470;2024-01-06T04:07:37;6.06;99.99
67868;SHT31;54672;46.096;14.470;2024-01-06T04:10:03;6.10;99.99
67868;SHT31;54672;46.096;14.470;2024-01-06T04:12:29;6.12;99.99
67868;SHT31;54672;46.096;14.470;2024-01-06T04:14:54;6.23;99.99
67868;SHT31;54672;46.096;14.470;2024-01-06T04:17:20;6.26;99.99
67868;SHT31;54672;46.096;14.470;2024-01-06T04:19:45;6.36;99.99
67868;SHT31;54672;46.096;14.470;2024-01-06T04:22:10;6.30;99.99
67868;SHT31;54672;46.096;14.470;2024-01-06T04:24:36;6.19;99.99
67868;SHT31;54672;46.096;14.470;2024-01-06T04:27:04;6.23;99.99
67868;SHT31;54672;46.096;14.470;2024-01-06T04:29:30;6.29;99.99
67868;SHT31;54672;46.096;14.470;2024-01-06T04:31:55;6.17;99.99
67868;SHT31;54672;46.096;14.470;2024-01-06T04:34:20;6.10;99.99
67868;SHT31;54672;46.096;14.470;2024-01-06T04:36:46;6.05;99.99
67868;SHT31;54672;46.096;14.470;2024-01-06T04:39:11;5.96;99.99
67868;SHT31;54672;46.096;14.470;2024-01-06T04:41:39;6.02;99.99
67868;SHT31;54672;46.096;14.470;2024-01-06T04:44:05;6.02;99.99
67868;SHT31;54672;46.096;14.470;2024-01-06T04:46:31;6.12;99.99
67868;SHT31;54672;46.096;14.470;2024-01-06T04:48:56;6.13;99.99
67868;SHT31;54672;46.096;14.470;2024-01-06T04:51:21;6.09;99.99
67868;SHT31;54672;46.096;14.470;2024-01-06T04:53:47;6.12;99.99
67868;SHT31;54672;46.096;14.470;2024-01-06T04:56:12;6.07;99.99
67868;SHT31;54672;46.096;14.470;2024-01-06T04:58:38;6.13;99.99
67868;SHT31;54672;46.096;14.470;2024-01-06T05:01:04;6.13;99.99
67868;SHT31;54672;46.096;14.470;2024-01-06T05:03:30;6.16;99.99
67868;SHT31;54672;46.096;14.470;2024-01-06T05:05:55;6.15;99.99
67868;SHT31;54672;46.096;14.470;2024-01-06T05:08:20;6.19;99.99
67868;SHT31;54672;46.096;14.470;2024-01-06T05:10:48;6.20;99.99
67868;SHT31;54672;46.096;14.470;2024-01-06T05:13:13;6.23;99.99
67868;SHT31;54672;46.096;14.470;2024-01-06T05:15:39;6.33;99.99
67868;SHT31;54672;46.096;14.470;2024-01-06T05:18:05;6.37;99.99
67868;SHT31;54672;46.096;14.470;2024-01-06T05:20:30;6.34;99.99
67868;SHT31;54672;46.096;14.470;2024-01-06T05:22:56;6.34;99.99
67868;SHT31;54672;46.096;14.470;2024-01-06T05:25:21;6.36;99.99
67868;SHT31;54672;46.096;14.470;2024-01-06T05:27:47;6.33;99.99
67868;SHT31;54672;46.096;14.470;2024-01-06T05:30:12;6.38;99.99
67868;SHT31;54672;46.096;14.470;2024-01-06T05:32:37;6.38;99.99
67868;SHT31;54672;46.096;14.470;2024-01-06T05:35:04;6.38;99.99
67868;SHT31;54672;46.096;14.470;2024-01-06T05:37:31;6.43;99.99
67868;SHT31;54672;46.096;14.470;2024-01-06T05:39:56;6.48;99.99
67868;SHT31;54672;46.096;14.470;2024-01-06T05:42:26;6.50;99.99
67868;SHT31;54672;46.096;14.470;2024-01-06T05:44:51;6.51;99.99
67868;SHT31;54672;46.096;14.470;2024-01-06T05:47:17;6.53;99.99
67868;SHT31;54672;46.096;14.470;2024-01-06T05:49:42;6.53;99.99
67868;SHT31;54672;46.096;14.470;2024-01-06T05:52:10;6.48;99.99
67868;SHT31;54672;46.096;14.470;2024-01-06T05:54:36;6.50;99.99
67868;SHT31;54672;46.096;14.470;2024-01-06T05:57:02;6.53;99.99
67868;SHT31;54672;46.096;14.470;2024-01-06T05:59:27;6.55;99.99
67868;SHT31;54672;46.096;14.470;2024-01-06T06:01:53;6.58;99.99
67868;SHT31;54672;46.096;14.470;2024-01-06T06:04:18;6.61;99.99
67868;SHT31;54672;46.096;14.470;2024-01-06T06:06:44;6.63;99.99
67868;SHT31;54672;46.096;14.470;2024-01-06T06:09:10;6.63;99.99
67868;SHT31;54672;46.096;14.470;2024-01-06T06:11:35;6.63;99.99
67868;SHT31;54672;46.096;14.470;2024-01-06T06:14:01;6.64;99.99
67868;SHT31;54672;46.096;14.470;2024-01-06T06:16:28;6.65;99.99
67868;SHT31;54672;46.096;14.470;2024-01-06T06:18:54;6.65;99.99
67868;SHT31;54672;46.096;14.470;2024-01-06T06:21:20;6.68;99.99
67868;SHT31;54672;46.096;14.470;2024-01-06T06:23:45;6.70;99.99
67868;SHT31;54672;46.096;14.470;2024-01-06T06:26:11;6.71;99.99
67868;SHT31;54672;46.096;14.470;2024-01-06T06:28:37;6.74;99.99
67868;SHT31;54672;46.096;14.470;2024-01-06T06:31:02;6.73;99.99
67868;SHT31;54672;46.096;14.470;2024-01-06T06:33:28;6.71;99.99
67868;SHT31;54672;46.096;14.470;2024-01-06T06:35:54;6.61;99.99
67868;SHT31;54672;46.096;14.470;2024-01-06T06:38:19;6.60;99.99
67868;SHT31;54672;46.096;14.470;2024-01-06T06:40:46;6.61;99.99
67868;SHT31;54672;46.096;14.470;2024-01-06T06:43:13;6.53;99.99
67868;SHT31;54672;46.096;14.470;2024-01-06T06:45:38;6.41;99.99
67868;SHT31;54672;46.096;14.470;2024-01-06T06:48:04;6.32;99.99
67868;SHT31;54672;46.096;14.470;2024-01-06T06:50:29;6.34;99.99
67868;SHT31;54672;46.096;14.470;2024-01-06T06:52:55;6.30;99.99
67868;SHT31;54672;46.096;14.470;2024-01-06T06:55:21;6.33;99.99
67868;SHT31;54672;46.096;14.470;2024-01-06T06:57:46;6.47;99.99
67868;SHT31;54672;46.096;14.470;2024-01-06T07:00:12;6.43;99.99
67868;SHT31;54672;46.096;14.470;2024-01-06T07:02:38;6.44;99.99
67868;SHT31;54672;46.096;14.470;2024-01-06T07:05:03;6.45;99.99
67868;SHT31;54672;46.096;14.470;2024-01-06T07:07:32;6.51;99.99
67868;SHT31;54672;46.096;14.470;2024-01-06T07:09:58;6.48;99.99
67868;SHT31;54672;46.096;14.470;2024-01-06T07:12:23;6.51;99.99
67868;SHT31;54672;46.096;14.470;2024-01-06T07:14:49;6.58;99.99
67868;SHT31;54672;46.096;14.470;2024-01-06T07:17:14;6.61;99.99
67868;SHT31;54672;46.096;14.470;2024-01-06T07:19:39;6.61;99.99
67868;SHT31;54672;46.096;14.470;2024-01-06T07:22:05;6.58;99.99
67868;SHT31;54672;46.096;14.470;2024-01-06T07:24:30;6.58;99.99
67868;SHT31;54672;46.096;14.470;2024-01-06T07:26:56;6.63;99.99
67868;SHT31;54672;46.096;14.470;2024-01-06T07:29:21;6.65;99.99
67868;SHT31;54672;46.096;14.470;2024-01-06T07:31:46;6.65;99.99
67868;SHT31;54672;46.096;14.470;2024-01-06T07:34:12;6.74;99.99
67868;SHT31;54672;46.096;14.470;2024-01-06T07:36:38;6.73;99.99
67868;SHT31;54672;46.096;14.470;2024-01-06T07:39:05;6.67;99.99
67868;SHT31;54672;46.096;14.470;2024-01-06T07:41:31;6.65;99.99
67868;SHT31;54672;46.096;14.470;2024-01-06T07:43:57;6.67;99.99
67868;SHT31;54672;46.096;14.470;2024-01-06T07:46:23;6.73;99.99
67868;SHT31;54672;46.096;14.470;2024-01-06T07:48:49;6.74;99.99
67868;SHT31;54672;46.096;14.470;2024-01-06T07:51:14;6.80;99.99
67868;SHT31;54672;46.096;14.470;2024-01-06T07:53:40;6.80;99.99
67868;SHT31;54672;46.096;14.470;2024-01-06T07:56:05;6.80;99.99
67868;SHT31;54672;46.096;14.470;2024-01-06T07:58:31;6.88;99.99
67868;SHT31;54672;46.096;14.470;2024-01-06T08:00:58;6.88;99.99
67868;SHT31;54672;46.096;14.470;2024-01-06T08:03:23;6.88;99.99
67868;SHT31;54672;46.096;14.470;2024-01-06T08:05:50;6.80;99.99
67868;SHT31;54672;46.096;14.470;2024-01-06T08:08:24;6.71;99.99
67868;SHT31;54672;46.096;14.470;2024-01-06T08:10:49;6.75;99.99
67868;SHT31;54672;46.096;14.470;2024-01-06T08:13:15;6.80;99.99
67868;SHT31;54672;46.096;14.470;2024-01-06T08:15:40;6.88;99.99
67868;SHT31;54672;46.096;14.470;2024-01-06T08:18:06;6.96;99.99
67868;SHT31;54672;46.096;14.470;2024-01-06T08:20:31;7.02;99.99
67868;SHT31;54672;46.096;14.470;2024-01-06T08:22:56;7.05;99.99
67868;SHT31;54672;46.096;14.470;2024-01-06T08:25:22;7.06;99.99
67868;SHT31;54672;46.096;14.470;2024-01-06T08:27:47;7.14;99.99
67868;SHT31;54672;46.096;14.470;2024-01-06T08:30:13;7.15;99.99
67868;SHT31;54672;46.096;14.470;2024-01-06T08:32:38;7.18;99.99
67868;SHT31;54672;46.096;14.470;2024-01-06T08:35:04;7.25;99.99
67868;SHT31;54672;46.096;14.470;2024-01-06T08:37:30;7.26;99.99
67868;SHT31;54672;46.096;14.470;2024-01-06T08:39:55;7.29;99.99
67868;SHT31;54672;46.096;14.470;2024-01-06T08:42:21;7.27;99.99
67868;SHT31;54672;46.096;14.470;2024-01-06T08:44:47;7.33;99.99
67868;SHT31;54672;46.096;14.470;2024-01-06T08:47:12;7.30;99.99
67868;SHT31;54672;46.096;14.470;2024-01-06T08:49:38;7.32;99.99
67868;SHT31;54672;46.096;14.470;2024-01-06T08:52:04;7.20;99.99
67868;SHT31;54672;46.096;14.470;2024-01-06T08:54:31;7.19;99.99
67868;SHT31;54672;46.096;14.470;2024-01-06T08:56:56;7.11;99.99
67868;SHT31;54672;46.096;14.470;2024-01-06T08:59:22;7.01;99.99
67868;SHT31;54672;46.096;14.470;2024-01-06T09:01:47;7.01;99.99
67868;SHT31;54672;46.096;14.470;2024-01-06T09:04:12;6.99;99.99
67868;SHT31;54672;46.096;14.470;2024-01-06T09:06:38;6.92;99.99
67868;SHT31;54672;46.096;14.470;2024-01-06T09:09:04;6.92;99.99
67868;SHT31;54672;46.096;14.470;2024-01-06T09:11:30;6.83;99.99
67868;SHT31;54672;46.096;14.470;2024-01-06T09:13:56;6.80;99.99
67868;SHT31;54672;46.096;14.470;2024-01-06T09:16:21;6.83;99.99
67868;SHT31;54672;46.096;14.470;2024-01-06T09:18:47;6.83;99.99
67868;SHT31;54672;46.096;14.470;2024-01-06T09:21:13;6.94;99.99
67868;SHT31;54672;46.096;14.470;2024-01-06T09:23:38;6.91;99.99
67868;SHT31;54672;46.096;14.470;2024-01-06T09:26:04;6.96;99.99
67868;SHT31;54672;46.096;14.470;2024-01-06T09:28:29;7.08;99.99
67868;SHT31;54672;46.096;14.470;2024-01-06T09:30:54;7.06;99.99
67868;SHT31;54672;46.096;14.470;2024-01-06T09:33:22;7.06;99.99
67868;SHT31;54672;46.096;14.470;2024-01-06T09:35:47;7.09;99.99
67868;SHT31;54672;46.096;14.470;2024-01-06T09:38:12;7.19;99.99
67868;SHT31;54672;46.096;14.470;2024-01-06T09:40:42;7.29;99.99
67868;SHT31;54672;46.096;14.470;2024-01-06T09:43:11;7.36;99.99
67868;SHT31;54672;46.096;14.470;2024-01-06T09:45:37;7.42;99.99
67868;SHT31;54672;46.096;14.470;2024-01-06T09:48:10;7.43;99.99
67868;SHT31;54672;46.096;14.470;2024-01-06T09:50:35;7.39;99.99
67868;SHT31;54672;46.096;14.470;2024-01-06T09:53:02;7.30;99.99
67868;SHT31;54672;46.096;14.470;2024-01-06T09:55:31;7.22;99.99
67868;SHT31;54672;46.096;14.470;2024-01-06T09:57:56;7.27;99.99
67868;SHT31;54672;46.096;14.470;2024-01-06T10:00:22;7.27;99.99
67868;SHT31;54672;46.096;14.470;2024-01-06T10:02:48;7.25;99.99
67868;SHT31;54672;46.096;14.470;2024-01-06T10:05:15;7.23;99.99
67868;SHT31;54672;46.096;14.470;2024-01-06T10:07:42;7.20;99.99
67868;SHT31;54672;46.096;14.470;2024-01-06T10:10:11;7.23;99.99
67868;SHT31;54672;46.096;14.470;2024-01-06T10:12:43;7.29;99.99
67868;SHT31;54672;46.096;14.470;2024-01-06T10:15:10;7.33;99.99
67868;SHT31;54672;46.096;14.470;2024-01-06T10:17:40;7.39;99.99
67868;SHT31;54672;46.096;14.470;2024-01-06T10:20:10;7.36;99.99
67868;SHT31;54672;46.096;14.470;2024-01-06T10:22:36;7.42;99.99
67868;SHT31;54672;46.096;14.470;2024-01-06T10:25:06;7.52;99.99
67868;SHT31;54672;46.096;14.470;2024-01-06T10:27:34;7.53;99.99
67868;SHT31;54672;46.096;14.470;2024-01-06T10:30:00;7.52;99.99
67868;SHT31;54672;46.096;14.470;2024-01-06T10:32:25;7.54;99.99
67868;SHT31;54672;46.096;14.470;2024-01-06T10:34:54;7.63;99.99
67868;SHT31;54672;46.096;14.470;2024-01-06T10:37:20;7.71;99.99
67868;SHT31;54672;46.096;14.470;2024-01-06T10:39:45;7.63;99.99
67868;SHT31;54672;46.096;14.470;2024-01-06T10:42:12;7.64;99.99
67868;SHT31;54672;46.096;14.470;2024-01-06T10:44:39;7.73;99.99
67868;SHT31;54672;46.096;14.470;2024-01-06T10:47:06;7.74;99.99
67868;SHT31;54672;46.096;14.470;2024-01-06T10:49:32;7.76;99.99
67868;SHT31;54672;46.096;14.470;2024-01-06T10:51:58;7.73;99.99
67868;SHT31;54672;46.096;14.470;2024-01-06T10:54:24;7.69;99.99
67868;SHT31;54672;46.096;14.470;2024-01-06T10:56:51;7.70;99.99
67868;SHT31;54672;46.096;14.470;2024-01-06T10:59:18;7.69;99.99
67868;SHT31;54672;46.096;14.470;2024-01-06T11:01:45;7.67;99.99
67868;SHT31;54672;46.096;14.470;2024-01-06T11:04:11;7.66;99.99
67868;SHT31;54672;46.096;14.470;2024-01-06T11:06:36;7.67;99.99
67868;SHT31;54672;46.096;14.470;2024-01-06T11:09:14;7.62;99.99
67868;SHT31;54672;46.096;14.470;2024-01-06T11:11:41;7.54;99.99
67868;SHT31;54672;46.096;14.470;2024-01-06T11:14:24;7.56;99.99
67868;SHT31;54672;46.096;14.470;2024-01-06T11:16:50;7.52;99.99
67868;SHT31;54672;46.096;14.470;2024-01-06T11:24:50;7.49;99.99
67868;SHT31;54672;46.096;14.470;2024-01-06T11:27:30;7.46;99.99
67868;SHT31;54672;46.096;14.470;2024-01-06T11:30:00;7.53;99.99
67868;SHT31;54672;46.096;14.470;2024-01-06T11:32:29;7.53;99.99
67868;SHT31;54672;46.096;14.470;2024-01-06T11:34:56;7.59;99.99
67868;SHT31;54672;46.096;14.470;2024-01-06T11:40:33;7.66;99.99
67868;SHT31;54672;46.096;14.470;2024-01-06T11:43:07;7.60;99.99
67868;SHT31;54672;46.096;14.470;2024-01-06T11:45:34;7.63;99.99
67868;SHT31;54672;46.096;14.470;2024-01-06T11:48:02;7.66;99.99
67868;SHT31;54672;46.096;14.470;2024-01-06T11:50:30;7.64;99.99
67868;SHT31;54672;46.096;14.470;2024-01-06T11:52:56;7.69;99.99
67868;SHT31;54672;46.096;14.470;2024-01-06T11:55:21;7.69;99.99
67868;SHT31;54672;46.096;14.470;2024-01-06T11:57:47;7.70;99.99
67868;SHT31;54672;46.096;14.470;2024-01-06T12:00:16;7.73;99.99
67868;SHT31;54672;46.096;14.470;2024-01-06T12:02:42;7.70;99.99
67868;SHT31;54672;46.096;14.470;2024-01-06T12:05:17;7.66;99.99
67868;SHT31;54672;46.096;14.470;2024-01-06T12:07:52;7.66;99.99
67868;SHT31;54672;46.096;14.470;2024-01-06T12:10:20;7.63;99.99
67868;SHT31;54672;46.096;14.470;2024-01-06T12:13:01;7.63;99.99
67868;SHT31;54672;46.096;14.470;2024-01-06T12:15:28;7.69;99.99
67868;SHT31;54672;46.096;14.470;2024-01-06T12:17:54;7.74;99.99
67868;SHT31;54672;46.096;14.470;2024-01-06T12:20:21;7.77;99.99
67868;SHT31;54672;46.096;14.470;2024-01-06T12:22:46;7.74;99.99
67868;SHT31;54672;46.096;14.470;2024-01-06T12:25:12;7.71;99.99
67868;SHT31;54672;46.096;14.470;2024-01-06T12:27:44;7.69;99.99
67868;SHT31;54672;46.096;14.470;2024-01-06T12:30:18;7.62;99.99
67868;SHT31;54672;46.096;14.470;2024-01-06T12:32:45;7.59;99.99
67868;SHT31;54672;46.096;14.470;2024-01-06T12:35:11;7.64;99.99
67868;SHT31;54672;46.096;14.470;2024-01-06T12:37:41;7.63;99.99
67868;SHT31;54672;46.096;14.470;2024-01-06T12:40:08;7.62;99.99
67868;SHT31;54672;46.096;14.470;2024-01-06T12:42:34;7.60;99.99
67868;SHT31;54672;46.096;14.470;2024-01-06T12:45:00;7.57;99.99
67868;SHT31;54672;46.096;14.470;2024-01-06T12:47:25;7.56;99.99
67868;SHT31;54672;46.096;14.470;2024-01-06T12:49:50;7.56;99.99
67868;SHT31;54672;46.096;14.470;2024-01-06T12:52:16;7.59;99.99
67868;SHT31;54672;46.096;14.470;2024-01-06T12:54:41;7.64;99.99
67868;SHT31;54672;46.096;14.470;2024-01-06T12:57:08;7.64;99.99
67868;SHT31;54672;46.096;14.470;2024-01-06T12:59:33;7.60;99.99
67868;SHT31;54672;46.096;14.470;2024-01-06T13:01:59;7.64;99.99
67868;SHT31;54672;46.096;14.470;2024-01-06T13:04:24;7.67;99.99
67868;SHT31;54672;46.096;14.470;2024-01-06T13:06:50;7.69;99.99
67868;SHT31;54672;46.096;14.470;2024-01-06T13:09:16;7.70;99.99
67868;SHT31;54672;46.096;14.470;2024-01-06T13:11:42;7.69;99.99
67868;SHT31;54672;46.096;14.470;2024-01-06T13:14:08;7.66;99.99
67868;SHT31;54672;46.096;14.470;2024-01-06T13:16:34;7.64;99.99
67868;SHT31;54672;46.096;14.470;2024-01-06T13:19:00;7.67;99.99
67868;SHT31;54672;46.096;14.470;2024-01-06T13:21:26;7.69;99.99
67868;SHT31;54672;46.096;14.470;2024-01-06T13:23:53;7.64;99.99
67868;SHT31;54672;46.096;14.470;2024-01-06T13:26:19;7.66;99.99
67868;SHT31;54672;46.096;14.470;2024-01-06T13:28:44;7.67;99.99
67868;SHT31;54672;46.096;14.470;2024-01-06T13:31:11;7.63;99.99
67868;SHT31;54672;46.096;14.470;2024-01-06T13:33:36;7.60;99.99
67868;SHT31;54672;46.096;14.470;2024-01-06T13:36:02;7.60;99.99
67868;SHT31;54672;46.096;14.470;2024-01-06T13:38:29;7.63;99.99
67868;SHT31;54672;46.096;14.470;2024-01-06T13:40:54;7.62;99.99
67868;SHT31;54672;46.096;14.470;2024-01-06T13:43:20;7.60;99.99
67868;SHT31;54672;46.096;14.470;2024-01-06T13:45:45;7.60;99.99
67868;SHT31;54672;46.096;14.470;2024-01-06T13:48:11;7.56;99.99
67868;SHT31;54672;46.096;14.470;2024-01-06T13:50:37;7.56;99.99
67868;SHT31;54672;46.096;14.470;2024-01-06T13:53:03;7.53;99.99
67868;SHT31;54672;46.096;14.470;2024-01-06T13:55:29;7.52;99.99
67868;SHT31;54672;46.096;14.470;2024-01-06T13:57:54;7.40;99.99
67868;SHT31;54672;46.096;14.470;2024-01-06T14:00:20;7.36;99.99
67868;SHT31;54672;46.096;14.470;2024-01-06T14:02:46;7.43;99.99
67868;SHT31;54672;46.096;14.470;2024-01-06T14:05:13;7.37;99.99
67868;SHT31;54672;46.096;14.470;2024-01-06T14:07:38;7.45;99.99
67868;SHT31;54672;46.096;14.470;2024-01-06T14:10:05;7.46;99.99
67868;SHT31;54672;46.096;14.470;2024-01-06T14:12:34;7.49;99.99
67868;SHT31;54672;46.096;14.470;2024-01-06T14:14:59;7.50;99.99
67868;SHT31;54672;46.096;14.470;2024-01-06T14:17:26;7.50;99.99
67868;SHT31;54672;46.096;14.470;2024-01-06T14:19:52;7.49;99.99
67868;SHT31;54672;46.096;14.470;2024-01-06T14:22:18;7.46;99.99
67868;SHT31;54672;46.096;14.470;2024-01-06T14:24:43;7.40;99.99
67868;SHT31;54672;46.096;14.470;2024-01-06T14:27:09;7.37;99.99
67868;SHT31;54672;46.096;14.470;2024-01-06T14:29:34;7.40;99.99
67868;SHT31;54672;46.096;14.470;2024-01-06T14:32:00;7.35;99.99
67868;SHT31;54672;46.096;14.470;2024-01-06T14:34:25;7.36;99.99
67868;SHT31;54672;46.096;14.470;2024-01-06T14:36:51;7.37;99.99
67868;SHT31;54672;46.096;14.470;2024-01-06T14:39:17;7.40;99.99
67868;SHT31;54672;46.096;14.470;2024-01-06T14:41:46;7.42;99.99
67868;SHT31;54672;46.096;14.470;2024-01-06T14:44:12;7.45;99.99
67868;SHT31;54672;46.096;14.470;2024-01-06T14:46:38;7.45;99.99
67868;SHT31;54672;46.096;14.470;2024-01-06T14:49:04;7.37;99.99
67868;SHT31;54672;46.096;14.470;2024-01-06T14:51:29;7.39;99.99
67868;SHT31;54672;46.096;14.470;2024-01-06T14:53:55;7.39;99.99
67868;SHT31;54672;46.096;14.470;2024-01-06T14:56:24;7.32;99.99
67868;SHT31;54672;46.096;14.470;2024-01-06T14:58:53;7.25;99.99
67868;SHT31;54672;46.096;14.470;2024-01-06T15:01:19;7.19;99.99
67868;SHT31;54672;46.096;14.470;2024-01-06T15:03:44;7.15;99.99
67868;SHT31;54672;46.096;14.470;2024-01-06T15:06:10;7.18;99.99
67868;SHT31;54672;46.096;14.470;2024-01-06T15:08:35;7.15;99.99
67868;SHT31;54672;46.096;14.470;2024-01-06T15:11:00;7.14;99.99
67868;SHT31;54672;46.096;14.470;2024-01-06T15:13:28;7.09;99.99
67868;SHT31;54672;46.096;14.470;2024-01-06T15:15:53;7.02;99.99
67868;SHT31;54672;46.096;14.470;2024-01-06T15:18:19;7.02;99.99
67868;SHT31;54672;46.096;14.470;2024-01-06T15:20:49;6.99;99.99
67868;SHT31;54672;46.096;14.470;2024-01-06T15:23:14;6.99;99.99
67868;SHT31;54672;46.096;14.470;2024-01-06T15:25:40;6.99;99.99
67868;SHT31;54672;46.096;14.470;2024-01-06T15:28:07;6.98;99.99
67868;SHT31;54672;46.096;14.470;2024-01-06T15:30:33;6.94;99.99
67868;SHT31;54672;46.096;14.470;2024-01-06T15:32:58;6.91;99.99